Back to Top

Language: 

My Weather Underground Personal Weather Station Historical Data with Graphs...

Delerius Weather Station Historical Data
Daily Summary for March 5, 2017 Units:  English    Metric   Both
« Previous Day
Next Day »
Daily Weekly Monthly Yearly Custom
  High: Low: Average:
Temperature: 43.9 °F 39.5 °F 41.5 °F
Dew Point: 40.7 °F 36.2 °F 39.1 °F
Humidity: 96 % 85 % 91 %
Wind Speed: 10.0 mph 0.0 mph 4.8 mph
Wind Gust: 16.0 mph - -
Wind:- - SSW
Pressure: 29.44 in 29.09 in -
Precipitation: 0.21 in    
Historical Graphs
 
 
Tabular Data for March 5, 2017
Time Temperature Dew Point Pressure Wind Wind Speed Wind Gust Humidity Rainfall Rate (Hourly) solar Conditions
00:00 42.9 °F 39.3 °F 29.14 in SSW 8.0 mph 9.0 mph 87 % 0.00 in 0 W/m2
00:05 42.9 °F 39.3 °F 29.14 in SW 8.0 mph 9.0 mph 87 % 0.00 in 0 W/m2
00:15 42.9 °F 39.3 °F 29.14 in SW 7.0 mph 8.0 mph 87 % 0.00 in 0 W/m2
00:20 43.0 °F 39.4 °F 29.14 in SW 6.0 mph 6.0 mph 87 % 0.00 in 0 W/m2
00:25 43.0 °F 39.4 °F 29.14 in SW 5.0 mph 6.0 mph 87 % 0.00 in 0 W/m2
00:30 43.0 °F 39.4 °F 29.14 in SW 4.0 mph 4.0 mph 87 % 0.00 in 0 W/m2
00:40 43.1 °F 39.5 °F 29.14 in SSW 5.0 mph 5.0 mph 87 % 0.00 in 0 W/m2
00:45 43.2 °F 39.6 °F 29.14 in South 5.0 mph 8.0 mph 87 % 0.00 in 0 W/m2
00:55 43.4 °F 39.8 °F 29.14 in SSW 6.0 mph 8.0 mph 87 % 0.00 in 0 W/m2
01:00 43.4 °F 39.5 °F 29.14 in South 6.0 mph 7.0 mph 86 % 0.00 in 0 W/m2
01:05 43.5 °F 39.9 °F 29.14 in SSW 6.0 mph 16.0 mph 87 % 0.00 in 0 W/m2
01:10 43.5 °F 39.9 °F 29.14 in South 6.0 mph 16.0 mph 87 % 0.00 in 0 W/m2
01:15 43.5 °F 39.9 °F 29.14 in SSW 6.0 mph 16.0 mph 87 % 0.00 in 0 W/m2
01:20 43.5 °F 39.9 °F 29.14 in South 7.0 mph 16.0 mph 87 % 0.00 in 0 W/m2
01:30 43.5 °F 39.9 °F 29.14 in SSW 7.0 mph 7.0 mph 87 % 0.00 in 0 W/m2
01:35 43.5 °F 39.9 °F 29.14 in South 6.0 mph 8.0 mph 87 % 0.00 in 0 W/m2
01:40 43.5 °F 39.9 °F 29.14 in SSW 6.0 mph 16.0 mph 87 % 0.00 in 0 W/m2
01:45 43.6 °F 40.0 °F 29.14 in SSW 6.0 mph 16.0 mph 87 % 0.00 in 0 W/m2
01:50 43.6 °F 40.0 °F 29.14 in SSW 6.0 mph 16.0 mph 87 % 0.00 in 0 W/m2
02:00 43.7 °F 40.1 °F 29.14 in SW 7.0 mph 16.0 mph 87 % 0.00 in 0 W/m2
02:05 43.7 °F 40.1 °F 29.14 in SW 6.0 mph 16.0 mph 87 % 0.00 in 0 W/m2
02:15 43.8 °F 40.2 °F 29.14 in SW 6.0 mph 16.0 mph 87 % 0.00 in 0 W/m2
02:20 43.8 °F 39.9 °F 29.14 in SW 7.0 mph 7.0 mph 86 % 0.00 in 0 W/m2
02:25 43.9 °F 40.0 °F 29.14 in WSW 7.0 mph 16.0 mph 86 % 0.00 in 0 W/m2
02:35 43.9 °F 40.0 °F 29.14 in SW 7.0 mph 16.0 mph 86 % 0.00 in 0 W/m2
02:40 43.8 °F 39.9 °F 29.14 in SW 7.0 mph 16.0 mph 86 % 0.00 in 0 W/m2
02:45 43.8 °F 39.9 °F 29.14 in SW 7.0 mph 16.0 mph 86 % 0.00 in 0 W/m2
02:50 43.8 °F 39.9 °F 29.14 in WSW 8.0 mph 16.0 mph 86 % 0.00 in 0 W/m2
02:55 43.7 °F 39.8 °F 29.14 in SW 8.0 mph 16.0 mph 86 % 0.00 in 0 W/m2
03:00 43.7 °F 39.8 °F 29.15 in WSW 8.0 mph 8.0 mph 86 % 0.00 in 0 W/m2
03:15 43.5 °F 39.6 °F 29.15 in SW 9.0 mph 16.0 mph 86 % 0.00 in 0 W/m2
03:20 43.4 °F 39.5 °F 29.15 in SW 8.0 mph 16.0 mph 86 % 0.00 in 0 W/m2
03:25 43.2 °F 39.6 °F 29.15 in WSW 9.0 mph 16.0 mph 87 % 0.00 in 0 W/m2
03:30 43.1 °F 39.5 °F 29.15 in SW 10.0 mph 10.0 mph 87 % 0.00 in 0 W/m2
03:35 42.9 °F 39.3 °F 29.15 in SW 10.0 mph 12.0 mph 87 % 0.00 in 0 W/m2
03:45 42.8 °F 39.5 °F 29.15 in SW 8.0 mph 16.0 mph 88 % 0.00 in 0 W/m2
03:50 42.8 °F 39.5 °F 29.15 in SW 8.0 mph 16.0 mph 88 % 0.00 in 0 W/m2
03:55 42.7 °F 39.4 °F 29.15 in SW 8.0 mph 16.0 mph 88 % 0.00 in 0 W/m2
04:00 42.7 °F 39.1 °F 29.15 in SW 8.0 mph 16.0 mph 87 % 0.00 in 0 W/m2
04:10 42.8 °F 38.9 °F 29.15 in SW 8.0 mph 8.0 mph 86 % 0.00 in 0 W/m2
04:20 42.7 °F 38.5 °F 29.15 in SSW 7.0 mph 7.0 mph 85 % 0.00 in 0 W/m2
04:25 42.7 °F 38.5 °F 29.16 in SW 7.0 mph 16.0 mph 85 % 0.00 in 0 W/m2
04:30 42.6 °F 38.4 °F 29.16 in SW 7.0 mph 7.0 mph 85 % 0.00 in 0 W/m2
04:35 42.6 °F 38.4 °F 29.16 in South 7.0 mph 16.0 mph 85 % 0.00 in 0 W/m2
04:40 42.5 °F 38.3 °F 29.16 in SSW 8.0 mph 16.0 mph 85 % 0.00 in 0 W/m2
04:50 42.3 °F 38.1 °F 29.16 in SW 5.0 mph 5.0 mph 85 % 0.00 in 0 W/m2
04:55 42.2 °F 38.0 °F 29.15 in SSW 4.0 mph 16.0 mph 85 % 0.00 in 0 W/m2
05:00 42.1 °F 37.9 °F 29.15 in SW 4.0 mph 4.0 mph 85 % 0.00 in 0 W/m2
05:05 41.9 °F 37.7 °F 29.15 in SW 3.0 mph 16.0 mph 85 % 0.00 in 0 W/m2
05:10 41.7 °F 37.5 °F 29.15 in SW 3.0 mph 3.0 mph 85 % 0.00 in 0 W/m2
05:15 41.6 °F 37.4 °F 29.15 in SW 3.0 mph 4.0 mph 85 % 0.00 in 0 W/m2
05:25 41.5 °F 37.3 °F 29.15 in SW 4.0 mph 16.0 mph 85 % 0.00 in 0 W/m2
05:35 41.5 °F 37.3 °F 29.15 in South 5.0 mph 16.0 mph 85 % 0.00 in 0 W/m2
05:40 41.4 °F 37.2 °F 29.15 in SSW 6.0 mph 16.0 mph 85 % 0.00 in 0 W/m2
05:45 41.3 °F 37.1 °F 29.15 in SSW 6.0 mph 16.0 mph 85 % 0.00 in 0 W/m2
05:50 41.2 °F 37.0 °F 29.15 in South 5.0 mph 16.0 mph 85 % 0.00 in 0 W/m2
06:00 41.1 °F 37.2 °F 29.15 in SSW 6.0 mph 16.0 mph 86 % 0.00 in 0 W/m2
06:05 41.1 °F 37.2 °F 29.15 in SSW 9.0 mph 16.0 mph 86 % 0.00 in 0 W/m2
06:10 41.0 °F 37.1 °F 29.15 in SSW 9.0 mph 16.0 mph 86 % 0.00 in 0 W/m2
06:15 41.0 °F 37.1 °F 29.15 in SW 10.0 mph 16.0 mph 86 % 0.00 in 0 W/m2
06:20 41.0 °F 37.1 °F 29.15 in SSW 10.0 mph 10.0 mph 86 % 0.00 in 0 W/m2
06:30 41.0 °F 37.1 °F 29.15 in SW 2.0 mph 2.0 mph 86 % 0.00 in 0 W/m2
06:35 40.8 °F 36.6 °F 29.14 in Calm   16.0 mph 85 % 0.00 in 0 W/m2
06:40 40.6 °F 36.7 °F 29.14 in SW 1.0 mph 16.0 mph 86 % 0.00 in 0 W/m2
06:45 40.6 °F 36.7 °F 29.14 in SW 1.0 mph 16.0 mph 86 % 0.00 in 5 W/m2
06:55 40.2 °F 36.3 °F 29.14 in ESE 2.0 mph 16.0 mph 86 % 0.00 in 12 W/m2
07:00 39.9 °F 36.3 °F 29.14 in ESE 2.0 mph 2.0 mph 87 % 0.00 in 16 W/m2
07:10 39.6 °F 36.3 °F 29.13 in East 2.0 mph 2.0 mph 88 % 0.00 in 23 W/m2
07:15 39.5 °F 36.2 °F 29.13 in East 2.0 mph 16.0 mph 88 % 0.00 in 60 W/m2
07:20 39.7 °F 36.7 °F 29.13 in East 1.0 mph 16.0 mph 89 % 0.00 in 53 W/m2
07:25 39.9 °F 36.9 °F 29.13 in East 1.0 mph 16.0 mph 89 % 0.00 in 30 W/m2
07:30 39.9 °F 36.6 °F 29.13 in ESE 2.0 mph 16.0 mph 88 % 0.00 in 35 W/m2
07:40 39.9 °F 36.9 °F 29.13 in SSE 5.0 mph 5.0 mph 89 % 0.00 in 56 W/m2
07:45 40.1 °F 37.1 °F 29.13 in SSE 3.0 mph 16.0 mph 89 % 0.00 in 123 W/m2
07:50 40.5 °F 37.5 °F 29.13 in ESE 2.0 mph 16.0 mph 89 % 0.00 in 135 W/m2
07:55 41.0 °F 37.7 °F 29.13 in ESE 3.0 mph 16.0 mph 88 % 0.00 in 146 W/m2
08:00 41.3 °F 38.0 °F 29.13 in East 2.0 mph 16.0 mph 88 % 0.00 in 44 W/m2
08:10 41.0 °F 37.4 °F 29.13 in SE 2.0 mph 16.0 mph 87 % 0.00 in 107 W/m2
08:15 41.1 °F 37.8 °F 29.13 in SE 2.0 mph 16.0 mph 88 % 0.00 in 279 W/m2
08:20 41.5 °F 38.2 °F 29.13 in SE 3.0 mph 16.0 mph 88 % 0.00 in 262 W/m2
08:25 41.9 °F 38.3 °F 29.13 in SE 4.0 mph 16.0 mph 87 % 0.00 in 257 W/m2
08:30 41.9 °F 38.3 °F 29.13 in ESE 5.0 mph 5.0 mph 87 % 0.00 in 276 W/m2
08:35 42.1 °F 38.5 °F 29.13 in SSE 6.0 mph 7.0 mph 87 % 0.00 in 237 W/m2
08:45 41.7 °F 38.1 °F 29.13 in SE 5.0 mph 16.0 mph 87 % 0.00 in 120 W/m2
08:50 41.6 °F 38.0 °F 29.13 in ESE 3.0 mph 16.0 mph 87 % 0.00 in 79 W/m2
08:55 41.5 °F 38.2 °F 29.13 in South 4.0 mph 16.0 mph 88 % 0.00 in 65 W/m2
09:00 41.5 °F 38.2 °F 29.13 in SE 4.0 mph 4.0 mph 88 % 0.00 in 65 W/m2
09:05 41.5 °F 38.2 °F 29.13 in SSE 3.0 mph 16.0 mph 88 % 0.00 in 83 W/m2
09:10 41.5 °F 38.2 °F 29.12 in SE 3.0 mph 16.0 mph 88 % 0.00 in 100 W/m2
09:20 41.7 °F 38.7 °F 29.12 in ESE 3.0 mph 3.0 mph 89 % 0.00 in 91 W/m2
09:25 41.7 °F 38.7 °F 29.12 in ESE 4.0 mph 5.0 mph 89 % 0.00 in 97 W/m2
09:30 41.8 °F 38.8 °F 29.12 in SE 5.0 mph 16.0 mph 89 % 0.00 in 111 W/m2
09:40 42.0 °F 38.7 °F 29.12 in SE 6.0 mph 6.0 mph 88 % 0.00 in 95 W/m2
09:45 42.1 °F 38.8 °F 29.12 in SSE 7.0 mph 7.0 mph 88 % 0.00 in 105 W/m2
09:55 42.3 °F 39.0 °F 29.12 in SSE 6.0 mph 16.0 mph 88 % 0.00 in 77 W/m2
10:00 42.3 °F 39.3 °F 29.12 in ESE 5.0 mph 5.0 mph 89 % 0.00 in 79 W/m2
10:05 42.4 °F 39.7 °F 29.11 in ESE 4.0 mph 16.0 mph 90 % 0.00 in 128 W/m2
10:10 42.3 °F 39.6 °F 29.11 in East 5.0 mph 16.0 mph 90 % 0.00 in 172 W/m2
10:15 42.3 °F 39.6 °F 29.11 in SE 6.0 mph 16.0 mph 90 % 0.00 in 151 W/m2
10:25 42.4 °F 40.0 °F 29.10 in East 4.0 mph 16.0 mph 91 % 0.00 in 105 W/m2
10:30 42.4 °F 40.0 °F 29.10 in ESE 4.0 mph 16.0 mph 91 % 0.00 in 109 W/m2
10:35 42.4 °F 40.0 °F 29.09 in ESE 4.0 mph 16.0 mph 91 % 0.00 in 123 W/m2
10:40 42.5 °F 40.1 °F 29.09 in East 3.0 mph 3.0 mph 91 % 0.00 in 111 W/m2
10:45 42.5 °F 40.1 °F 29.09 in East 3.0 mph 4.0 mph 91 % 0.00 in 102 W/m2
10:50 42.5 °F 40.1 °F 29.09 in East 5.0 mph 16.0 mph 91 % 0.00 in 109 W/m2
11:00 42.6 °F 40.4 °F 29.09 in ENE 4.0 mph 16.0 mph 92 % 0.00 in 139 W/m2
11:10 42.7 °F 40.5 °F 29.09 in ESE 4.0 mph 16.0 mph 92 % 0.00 in 88 W/m2
11:15 42.7 °F 40.3 °F 29.09 in ESE 4.0 mph 16.0 mph 91 % 0.00 in 63 W/m2
11:20 42.6 °F 40.2 °F 29.09 in SE 5.0 mph 16.0 mph 91 % 0.00 in 65 W/m2
11:25 42.5 °F 40.1 °F 29.09 in East 7.0 mph 16.0 mph 91 % 0.00 in 97 W/m2
11:35 42.5 °F 40.3 °F 29.09 in ESE 6.0 mph 16.0 mph 92 % 0.00 in 72 W/m2
11:40 42.4 °F 40.2 °F 29.09 in East 7.0 mph 7.0 mph 92 % 0.00 in 79 W/m2
11:45 42.3 °F 40.1 °F 29.09 in ESE 6.0 mph 16.0 mph 92 % 0.04 in 62 W/m2
11:50 42.3 °F 40.4 °F 29.09 in ESE 5.0 mph 5.0 mph 93 % 0.09 in 49 W/m2
11:55 42.2 °F 40.3 °F 29.09 in ENE 4.0 mph 16.0 mph 93 % 0.11 in 47 W/m2
12:05 42.0 °F 40.1 °F 29.09 in ESE 5.0 mph 9.0 mph 93 % 0.11 in 42 W/m2
12:10 42.0 °F 40.1 °F 29.09 in ESE 6.0 mph 16.0 mph 93 % 0.07 in 79 W/m2
12:15 42.0 °F 40.4 °F 29.09 in ESE 6.0 mph 16.0 mph 94 % 0.07 in 77 W/m2
12:20 41.8 °F 40.2 °F 29.09 in SE 7.0 mph 16.0 mph 94 % 0.05 in 65 W/m2
12:25 41.3 °F 39.4 °F 29.09 in South 8.0 mph 16.0 mph 93 % 0.05 in 63 W/m2
12:35 40.8 °F 38.9 °F 29.09 in SSE 6.0 mph 16.0 mph 93 % 0.04 in 81 W/m2
12:45 40.7 °F 38.8 °F 29.09 in SE 7.0 mph 7.0 mph 93 % 0.04 in 88 W/m2
12:50 40.7 °F 38.8 °F 29.09 in ESE 6.0 mph 16.0 mph 93 % 0.05 in 79 W/m2
12:55 40.7 °F 38.8 °F 29.09 in ESE 6.0 mph 16.0 mph 93 % 0.05 in 88 W/m2
13:00 40.6 °F 38.7 °F 29.09 in East 6.0 mph 6.0 mph 93 % 0.05 in 91 W/m2
13:05 40.5 °F 38.9 °F 29.09 in SE 6.0 mph 16.0 mph 94 % 0.00 in 79 W/m2
13:10 40.5 °F 38.9 °F 29.09 in East 5.0 mph 5.0 mph 94 % 0.00 in 74 W/m2
13:15 40.5 °F 38.9 °F 29.09 in ESE 4.0 mph 16.0 mph 94 % 0.00 in 83 W/m2
13:20 40.2 °F 38.3 °F 29.09 in ESE 5.0 mph 5.0 mph 93 % 0.00 in 72 W/m2
13:25 40.1 °F 38.2 °F 29.10 in East 4.0 mph 16.0 mph 93 % 0.05 in 65 W/m2
13:30 40.2 °F 38.6 °F 29.10 in East 2.0 mph 16.0 mph 94 % 0.08 in 88 W/m2
13:35 39.9 °F 38.0 °F 29.10 in East 3.0 mph 16.0 mph 93 % 0.08 in 100 W/m2
13:45 40.0 °F 38.4 °F 29.10 in East 3.0 mph 16.0 mph 94 % 0.04 in 97 W/m2
13:50 40.1 °F 38.5 °F 29.10 in NE 2.0 mph 16.0 mph 94 % 0.00 in 90 W/m2
13:55 40.0 °F 38.4 °F 29.10 in NE 3.0 mph 16.0 mph 94 % 0.00 in 65 W/m2
14:00 40.0 °F 38.4 °F 29.11 in NE 3.0 mph 16.0 mph 94 % 0.00 in 58 W/m2
14:10 40.1 °F 38.5 °F 29.10 in NE 3.0 mph 16.0 mph 94 % 0.00 in 51 W/m2
14:20 40.1 °F 38.5 °F 29.11 in NE 4.0 mph 16.0 mph 94 % 0.00 in 49 W/m2
14:25 40.1 °F 38.5 °F 29.11 in NE 3.0 mph 16.0 mph 94 % 0.00 in 51 W/m2
14:30 40.2 °F 38.9 °F 29.11 in North 4.0 mph 4.0 mph 95 % 0.00 in 46 W/m2
14:35 40.2 °F 38.9 °F 29.11 in NNE 5.0 mph 5.0 mph 95 % 0.00 in 44 W/m2
14:40 40.3 °F 39.0 °F 29.11 in North 5.0 mph 5.0 mph 95 % 0.00 in 35 W/m2
14:45 40.4 °F 39.1 °F 29.11 in NNE 3.0 mph 16.0 mph 95 % 0.00 in 33 W/m2
14:55 40.5 °F 39.2 °F 29.11 in NE 4.0 mph 16.0 mph 95 % 0.00 in 26 W/m2
15:00 40.6 °F 39.3 °F 29.12 in NNE 3.0 mph 3.0 mph 95 % 0.00 in 35 W/m2
15:05 40.6 °F 39.3 °F 29.12 in NNE 2.0 mph 16.0 mph 95 % 0.00 in 35 W/m2
15:10 40.7 °F 39.4 °F 29.12 in NNE 2.0 mph 2.0 mph 95 % 0.00 in 28 W/m2
15:15 40.7 °F 39.4 °F 29.13 in NNE 2.0 mph 4.0 mph 95 % 0.00 in 44 W/m2
15:25 40.8 °F 39.7 °F 29.13 in NE 2.0 mph 16.0 mph 96 % 0.00 in 49 W/m2
15:30 40.8 °F 39.5 °F 29.13 in NE 2.0 mph 16.0 mph 95 % 0.00 in 60 W/m2
15:35 40.8 °F 39.5 °F 29.13 in NE 2.0 mph 16.0 mph 95 % 0.00 in 58 W/m2
15:45 41.1 °F 40.0 °F 29.14 in NE 1.0 mph 3.0 mph 96 % 0.00 in 26 W/m2
15:50 40.9 °F 39.6 °F 29.14 in NE 2.0 mph 16.0 mph 95 % 0.00 in 26 W/m2
16:00 40.8 °F 39.5 °F 29.15 in ENE 1.0 mph 1.0 mph 95 % 0.00 in 35 W/m2
16:05 40.7 °F 39.4 °F 29.15 in Calm   16.0 mph 95 % 0.00 in 25 W/m2
16:10 40.7 °F 39.4 °F 29.15 in Calm   16.0 mph 95 % 0.00 in 23 W/m2
16:15 40.6 °F 39.3 °F 29.16 in ENE 1.0 mph 16.0 mph 95 % 0.00 in 28 W/m2
16:20 40.5 °F 39.2 °F 29.16 in ENE 1.0 mph 1.0 mph 95 % 0.06 in 30 W/m2
16:25 40.3 °F 39.0 °F 29.16 in Calm   16.0 mph 95 % 0.06 in 32 W/m2
16:30 40.4 °F 39.1 °F 29.16 in Calm   16.0 mph 95 % 0.06 in 30 W/m2
16:35 40.3 °F 39.0 °F 29.16 in Calm   16.0 mph 95 % 0.06 in 30 W/m2
16:40 40.3 °F 39.0 °F 29.17 in Calm   16.0 mph 95 % 0.04 in 28 W/m2
16:45 40.3 °F 39.0 °F 29.17 in NE 1.0 mph 16.0 mph 95 % 0.04 in 23 W/m2
16:50 40.4 °F 39.1 °F 29.17 in NE 1.0 mph 16.0 mph 95 % 0.04 in 23 W/m2
16:55 40.4 °F 39.1 °F 29.17 in NW 1.0 mph 16.0 mph 95 % 0.05 in 23 W/m2
17:05 40.5 °F 39.2 °F 29.18 in NNW 2.0 mph 16.0 mph 95 % 0.05 in 12 W/m2
17:10 40.5 °F 39.2 °F 29.18 in NW 2.0 mph 16.0 mph 95 % 0.05 in 9 W/m2
17:20 40.5 °F 39.2 °F 29.19 in NW 4.0 mph 16.0 mph 95 % 0.08 in 7 W/m2
17:25 40.5 °F 39.2 °F 29.19 in NNW 4.0 mph 16.0 mph 95 % 0.05 in 5 W/m2
17:30 40.5 °F 39.2 °F 29.20 in NW 5.0 mph 5.0 mph 95 % 0.04 in 5 W/m2
17:40 40.2 °F 38.9 °F 29.20 in NNW 5.0 mph 5.0 mph 95 % 0.05 in 0 W/m2
17:45 40.2 °F 38.9 °F 29.21 in NNW 3.0 mph 16.0 mph 95 % 0.05 in 0 W/m2
17:50 40.3 °F 39.0 °F 29.21 in NW 3.0 mph 16.0 mph 95 % 0.06 in 0 W/m2
17:55 40.3 °F 39.0 °F 29.21 in NNW 3.0 mph 16.0 mph 95 % 0.06 in 0 W/m2
18:00 40.4 °F 39.1 °F 29.22 in NNW 3.0 mph 3.0 mph 95 % 0.05 in 0 W/m2
18:05 40.3 °F 39.0 °F 29.22 in NW 3.0 mph 16.0 mph 95 % 0.04 in 0 W/m2
18:15 40.3 °F 39.0 °F 29.23 in NW 4.0 mph 16.0 mph 95 % 0.00 in 0 W/m2
18:20 40.3 °F 39.0 °F 29.23 in NW 5.0 mph 16.0 mph 95 % 0.00 in 0 W/m2
18:25 40.3 °F 39.0 °F 29.24 in NNW 5.0 mph 16.0 mph 95 % 0.00 in 0 W/m2
18:30 40.4 °F 39.1 °F 29.24 in NW 5.0 mph 5.0 mph 95 % 0.00 in 0 W/m2
18:40 40.5 °F 39.2 °F 29.24 in NW 6.0 mph 6.0 mph 95 % 0.00 in 0 W/m2
18:45 40.5 °F 39.2 °F 29.25 in West 6.0 mph 16.0 mph 95 % 0.00 in 0 W/m2
18:55 40.5 °F 39.4 °F 29.25 in NW 6.0 mph 16.0 mph 96 % 0.00 in 0 W/m2
19:00 40.5 °F 39.4 °F 29.25 in NW 6.0 mph 16.0 mph 96 % 0.00 in 0 W/m2
19:05 40.5 °F 39.4 °F 29.26 in WNW 6.0 mph 16.0 mph 96 % 0.00 in 0 W/m2
19:10 40.6 °F 39.5 °F 29.26 in West 7.0 mph 7.0 mph 96 % 0.00 in 0 W/m2
19:20 40.7 °F 39.6 °F 29.27 in NNW 6.0 mph 16.0 mph 96 % 0.00 in 0 W/m2
19:25 40.8 °F 39.7 °F 29.27 in West 5.0 mph 16.0 mph 96 % 0.00 in 0 W/m2
19:30 40.8 °F 39.7 °F 29.27 in NW 5.0 mph 16.0 mph 96 % 0.00 in 0 W/m2
19:35 40.9 °F 39.8 °F 29.28 in NNW 5.0 mph 16.0 mph 96 % 0.00 in 0 W/m2
19:40 41.0 °F 39.9 °F 29.28 in NW 5.0 mph 5.0 mph 96 % 0.00 in 0 W/m2
19:45 41.1 °F 40.0 °F 29.28 in NW 6.0 mph 8.0 mph 96 % 0.00 in 0 W/m2
19:55 41.1 °F 40.0 °F 29.29 in NW 5.0 mph 16.0 mph 96 % 0.00 in 0 W/m2
20:00 41.2 °F 40.1 °F 29.30 in NW 5.0 mph 16.0 mph 96 % 0.00 in 0 W/m2
20:10 41.3 °F 40.2 °F 29.30 in NW 6.0 mph 16.0 mph 96 % 0.00 in 0 W/m2
20:15 41.3 °F 40.2 °F 29.30 in WNW 6.0 mph 16.0 mph 96 % 0.00 in 0 W/m2
20:20 41.4 °F 40.3 °F 29.31 in WNW 6.0 mph 16.0 mph 96 % 0.00 in 0 W/m2
20:30 41.4 °F 40.3 °F 29.31 in NW 6.0 mph 6.0 mph 96 % 0.00 in 0 W/m2
20:35 41.4 °F 40.3 °F 29.32 in NW 6.0 mph 16.0 mph 96 % 0.00 in 0 W/m2
20:40 41.4 °F 40.3 °F 29.33 in WNW 6.0 mph 16.0 mph 96 % 0.00 in 0 W/m2
20:45 41.5 °F 40.4 °F 29.33 in NW 7.0 mph 16.0 mph 96 % 0.00 in 0 W/m2
20:50 41.5 °F 40.4 °F 29.33 in WNW 6.0 mph 16.0 mph 96 % 0.00 in 0 W/m2
21:00 41.6 °F 40.5 °F 29.34 in West 6.0 mph 16.0 mph 96 % 0.00 in 0 W/m2
21:05 41.7 °F 40.6 °F 29.34 in NW 6.0 mph 16.0 mph 96 % 0.00 in 0 W/m2
21:10 41.7 °F 40.6 °F 29.34 in NW 6.0 mph 16.0 mph 96 % 0.00 in 0 W/m2
21:20 41.8 °F 40.7 °F 29.35 in WNW 6.0 mph 6.0 mph 96 % 0.00 in 0 W/m2
21:25 41.8 °F 40.7 °F 29.36 in WNW 6.0 mph 16.0 mph 96 % 0.00 in 0 W/m2
21:35 41.8 °F 40.5 °F 29.37 in WNW 6.0 mph 8.0 mph 95 % 0.00 in 0 W/m2
21:40 41.8 °F 40.7 °F 29.37 in WNW 5.0 mph 5.0 mph 96 % 0.00 in 0 W/m2
21:45 41.7 °F 40.6 °F 29.38 in NW 5.0 mph 16.0 mph 96 % 0.00 in 0 W/m2
21:50 41.7 °F 40.4 °F 29.38 in NW 6.0 mph 6.0 mph 95 % 0.00 in 0 W/m2
21:55 41.7 °F 40.4 °F 29.38 in NW 6.0 mph 16.0 mph 95 % 0.00 in 0 W/m2
22:00 41.6 °F 40.3 °F 29.39 in WNW 6.0 mph 16.0 mph 95 % 0.00 in 0 W/m2
22:10 41.5 °F 40.2 °F 29.39 in WNW 6.0 mph 16.0 mph 95 % 0.00 in 0 W/m2
22:15 41.4 °F 40.1 °F 29.40 in NW 5.0 mph 16.0 mph 95 % 0.00 in 0 W/m2
22:20 41.2 °F 39.9 °F 29.40 in WNW 5.0 mph 16.0 mph 95 % 0.00 in 0 W/m2
22:25 41.1 °F 39.8 °F 29.41 in WNW 6.0 mph 16.0 mph 95 % 0.00 in 0 W/m2
22:30 41.1 °F 39.8 °F 29.41 in WNW 6.0 mph 16.0 mph 95 % 0.00 in 0 W/m2
22:40 41.0 °F 39.7 °F 29.41 in West 7.0 mph 7.0 mph 95 % 0.00 in 0 W/m2
22:45 40.9 °F 39.6 °F 29.42 in West 6.0 mph 16.0 mph 95 % 0.00 in 0 W/m2
22:55 40.7 °F 39.1 °F 29.42 in NW 6.0 mph 16.0 mph 94 % 0.00 in 0 W/m2
23:00 40.7 °F 39.4 °F 29.42 in WNW 6.0 mph 6.0 mph 95 % 0.00 in 0 W/m2
23:05 40.8 °F 39.5 °F 29.42 in NW 6.0 mph 7.0 mph 95 % 0.00 in 0 W/m2
23:15 40.7 °F 39.1 °F 29.43 in NW 5.0 mph 16.0 mph 94 % 0.00 in 0 W/m2
23:20 40.6 °F 39.0 °F 29.43 in NW 5.0 mph 5.0 mph 94 % 0.00 in 0 W/m2
23:25 40.5 °F 38.9 °F 29.43 in WNW 4.0 mph 6.0 mph 94 % 0.00 in 0 W/m2
23:30 40.4 °F 38.8 °F 29.43 in NW 5.0 mph 16.0 mph 94 % 0.00 in 0 W/m2
23:35 40.5 °F 38.9 °F 29.43 in NW 5.0 mph 16.0 mph 94 % 0.00 in 0 W/m2
23:40 40.5 °F 38.9 °F 29.44 in NW 5.0 mph 16.0 mph 94 % 0.00 in 0 W/m2
23:50 40.7 °F 39.4 °F 29.44 in NW 5.0 mph 5.0 mph 95 % 0.00 in 0 W/m2
23:55 40.7 °F 39.1 °F 29.44 in NW 4.0 mph 16.0 mph 94 % 0.00 in 0 W/m2
Delerius-Weather
Compliments of Weather Underground - 2 mb

Data updates at regular intervals.